Time;durP1;ratioP1;P1;durP2;ratioP2;P2;SDS_P1;SDS_P2;PMS_P1;PMS_P2;Temp;Humidity;BMP_temperature;BMP_pressure;BME280_temperature;BME280_humidity;BME280_pressure;Samples;Min_cycle;Max_cycle;Signal;HPM_P1;HPM_P2
2022/10/02 00:02:23;;;;;;;7.40;1.03;;;13.90;99.90;;;;;;5074610;28;20214;-83
2022/10/02 00:05:01;;;;;;;2.30;0.53;;;13.90;99.90;;;;;;5073952;28;20234;-83
2022/10/02 00:07:41;;;;;;;2.10;0.80;;;13.90;99.90;;;;;;5073855;28;20311;-83
2022/10/02 00:10:24;;;;;;;3.10;0.67;;;13.80;99.90;;;;;;5074574;28;20231;-85
2022/10/02 00:12:56;;;;;;;4.73;1.67;;;13.90;99.90;;;;;;5075701;28;20228;-84
2022/10/02 00:15:26;;;;;;;2.83;0.87;;;13.90;99.90;;;;;;5075372;28;20225;-81
2022/10/02 00:17:56;;;;;;;10.97;1.23;;;13.90;99.90;;;;;;5087295;28;20304;-85
2022/10/02 00:20:37;;;;;;;1.10;0.67;;;13.90;99.90;;;;;;5075852;28;20649;-83
2022/10/02 00:23:24;;;;;;;1.57;0.90;;;13.90;99.90;;;;;;5073686;28;20777;-84
2022/10/02 00:25:57;;;;;;;2.00;0.70;;;13.90;99.90;;;;;;5068726;28;20304;-84
2022/10/02 00:28:30;;;;;;;2.97;0.97;;;13.90;99.90;;;;;;5073211;28;20220;-83
2022/10/02 00:31:45;;;;;;;3.97;0.93;;;13.80;99.90;;;;;;5072692;28;20270;-84
2022/10/02 00:34:22;;;;;;;8.77;0.90;;;13.80;99.90;;;;;;5070823;28;20225;-84
2022/10/02 00:36:59;;;;;;;6.53;1.47;;;13.80;99.90;;;;;;5074677;28;20221;-84
2022/10/02 00:39:32;;;;;;;1.10;0.93;;;13.70;99.90;;;;;;5073570;28;20224;-84
2022/10/02 00:42:15;;;;;;;2.50;0.50;;;13.70;99.90;;;;;;5071947;28;20276;-85
2022/10/02 00:45:16;;;;;;;1.33;0.57;;;13.80;99.90;;;;;;5074145;28;20664;-83
2022/10/02 00:47:45;;;;;;;1.70;0.80;;;13.80;99.90;;;;;;5047228;28;20220;-87
2022/10/02 00:50:26;;;;;;;7.00;2.73;;;13.80;99.90;;;;;;5073911;28;20765;-85
2022/10/02 00:53:01;;;;;;;0.93;0.67;;;13.70;99.90;;;;;;5074646;28;20224;-83
2022/10/02 00:55:33;;;;;;;3.70;0.87;;;13.70;99.90;;;;;;5071122;28;20217;-85
2022/10/02 00:58:42;;;;;;;2.33;0.60;;;13.60;99.90;;;;;;5071754;28;20373;-85
2022/10/02 01:01:22;;;;;;;2.33;0.93;;;13.70;99.90;;;;;;5072815;28;20548;-84
2022/10/02 01:03:53;;;;;;;3.60;1.10;;;13.70;99.90;;;;;;5076363;28;20299;-85
2022/10/02 01:06:23;;;;;;;1.83;1.13;;;13.70;99.90;;;;;;5072080;28;20678;-82
2022/10/02 01:08:50;;;;;;;0.53;0.40;;;13.70;99.90;;;;;;5074078;28;20728;-85
2022/10/02 01:11:18;;;;;;;3.70;0.93;;;13.80;99.90;;;;;;5073194;28;20678;-84
2022/10/02 01:13:44;;;;;;;1.43;0.60;;;13.70;99.90;;;;;;5074907;28;20282;-85
2022/10/02 01:16:11;;;;;;;4.40;1.10;;;13.70;99.90;;;;;;5073309;28;20587;-85
2022/10/02 01:18:37;;;;;;;5.60;1.17;;;13.70;99.90;;;;;;5071057;28;20331;-85
2022/10/02 01:21:10;;;;;;;7.10;1.00;;;13.70;99.90;;;;;;5071861;28;20990;-86
2022/10/02 01:23:46;;;;;;;5.00;1.20;;;13.70;99.90;;;;;;5074635;28;20214;-84
2022/10/02 01:26:12;;;;;;;2.10;2.00;;;13.70;99.90;;;;;;5074447;28;20220;-84
2022/10/02 01:28:38;;;;;;;2.73;0.60;;;13.70;99.90;;;;;;5037816;28;20217;-85
2022/10/02 01:31:09;;;;;;;3.23;1.20;;;13.70;99.90;;;;;;5073924;28;20216;-84
2022/10/02 01:33:40;;;;;;;2.57;0.60;;;13.70;99.90;;;;;;5074047;28;20223;-85
2022/10/02 01:36:08;;;;;;;5.93;1.30;;;13.70;99.90;;;;;;5074667;28;20193;-84
2022/10/02 01:38:34;;;;;;;0.40;0.37;;;13.70;99.90;;;;;;5071377;28;20193;-85
2022/10/02 01:41:00;;;;;;;6.00;1.37;;;13.70;99.90;;;;;;5073178;28;21125;-85
2022/10/02 01:43:38;;;;;;;2.53;0.73;;;13.60;99.90;;;;;;5057195;28;20258;-84
2022/10/02 01:46:16;;;;;;;8.07;1.43;;;13.60;99.90;;;;;;5087933;28;20327;-83
2022/10/02 01:49:07;;;;;;;3.17;0.90;;;13.50;99.90;;;;;;5073670;28;20215;-84
2022/10/02 01:51:57;;;;;;;2.63;1.03;;;13.40;99.90;;;;;;5072303;28;20209;-84
2022/10/02 01:54:37;;;;;;;11.50;1.20;;;13.30;99.90;;;;;;5073591;28;20323;-85
2022/10/02 01:57:31;;;;;;;4.20;1.97;;;13.30;99.90;;;;;;5070625;28;20205;-84
2022/10/02 02:00:10;;;;;;;4.07;1.27;;;13.30;99.90;;;;;;5073798;28;20181;-83
2022/10/02 02:03:19;;;;;;;1.83;1.10;;;13.30;99.90;;;;;;5073373;28;20681;-84
2022/10/02 02:06:15;;;;;;;2.97;1.40;;;13.40;99.90;;;;;;5029422;28;20229;-84
2022/10/02 02:09:00;;;;;;;2.40;0.80;;;13.40;99.90;;;;;;5077734;28;20556;-85
2022/10/02 02:11:27;;;;;;;13.63;2.37;;;13.50;99.90;;;;;;5088518;28;20248;-83
2022/10/02 02:14:04;;;;;;;1.90;0.67;;;13.50;99.90;;;;;;5072166;28;20260;-85
2022/10/02 02:16:34;;;;;;;1.70;0.50;;;13.50;99.90;;;;;;5072911;28;20251;-82
2022/10/02 02:19:35;;;;;;;6.23;1.80;;;13.50;99.90;;;;;;5074275;28;20220;-84
2022/10/02 02:22:07;;;;;;;3.13;1.03;;;13.60;99.90;;;;;;5074074;28;20216;-83
2022/10/02 02:24:36;;;;;;;4.87;1.17;;;13.80;99.90;;;;;;5074830;28;20247;-85
2022/10/02 02:27:04;;;;;;;5.70;1.10;;;13.90;99.90;;;;;;5073029;28;20189;-82
2022/10/02 02:29:33;;;;;;;1.90;0.73;;;14.00;99.90;;;;;;5074302;28;20272;-83
2022/10/02 02:32:04;;;;;;;7.30;1.00;;;14.00;99.90;;;;;;5073535;28;20379;-83
2022/10/02 02:34:39;;;;;;;4.60;0.33;;;14.00;99.90;;;;;;5077296;28;20212;-82
2022/10/02 02:37:10;;;;;;;5.13;1.53;;;13.90;99.90;;;;;;5077489;28;21259;-85
2022/10/02 02:39:44;;;;;;;6.13;1.00;;;13.80;99.90;;;;;;5074367;28;20220;-83
2022/10/02 02:42:14;;;;;;;4.10;0.90;;;13.80;99.90;;;;;;5074380;28;20266;-82
2022/10/02 02:44:53;;;;;;;2.00;0.50;;;13.80;99.90;;;;;;5074633;28;20192;-82
2022/10/02 02:47:23;;;;;;;0.90;0.40;;;13.70;99.90;;;;;;5075106;28;20641;-82
2022/10/02 02:50:26;;;;;;;4.23;1.60;;;13.80;99.90;;;;;;5072843;28;20221;-84
2022/10/02 02:53:17;;;;;;;5.23;1.37;;;13.90;99.90;;;;;;5013154;28;20218;-83
2022/10/02 02:55:51;;;;;;;2.57;0.77;;;14.00;99.90;;;;;;5053327;28;20273;-83
2022/10/02 02:58:24;;;;;;;4.57;0.97;;;14.10;99.90;;;;;;5076636;28;20236;-83
2022/10/02 03:00:50;;;;;;;2.97;1.33;;;14.10;99.90;;;;;;5073575;28;20298;-84
2022/10/02 03:03:16;;;;;;;0.53;0.33;;;14.20;99.90;;;;;;5072868;28;20698;-81
2022/10/02 03:05:47;;;;;;;4.10;0.63;;;14.20;99.90;;;;;;5075955;28;20181;-82
2022/10/02 03:08:25;;;;;;;5.43;1.00;;;14.30;99.90;;;;;;5076588;28;20232;-81
2022/10/02 03:11:14;;;;;;;10.33;1.37;;;14.30;99.90;;;;;;5074596;28;20217;-81
2022/10/02 03:14:30;;;;;;;3.47;1.33;;;14.30;99.90;;;;;;5072749;28;20237;-83
2022/10/02 03:17:06;;;;;;;5.07;1.77;;;14.30;99.90;;;;;;5030425;28;20232;-82
2022/10/02 03:19:53;;;;;;;4.13;1.10;;;14.20;99.90;;;;;;5074464;28;20235;-81
2022/10/02 03:22:29;;;;;;;3.73;1.10;;;14.10;99.90;;;;;;5073643;28;21037;-83
2022/10/02 03:25:20;;;;;;;7.00;1.33;;;14.10;99.90;;;;;;5074798;28;20621;-83
2022/10/02 03:28:00;;;;;;;4.47;0.73;;;14.10;99.90;;;;;;5071203;28;20225;-83
2022/10/02 03:30:26;;;;;;;0.87;0.77;;;14.00;99.90;;;;;;5072078;28;20240;-83
2022/10/02 03:32:55;;;;;;;1.27;0.57;;;14.00;99.90;;;;;;5073662;28;20326;-81
2022/10/02 03:35:22;;;;;;;4.83;0.87;;;14.00;99.90;;;;;;5075889;28;20192;-83
2022/10/02 03:37:51;;;;;;;6.60;0.93;;;14.00;99.90;;;;;;5075980;28;20236;-81
2022/10/02 03:40:22;;;;;;;2.83;2.43;;;14.00;99.90;;;;;;5074427;28;20220;-82
2022/10/02 03:42:47;;;;;;;3.03;1.40;;;13.90;99.90;;;;;;5074789;28;20302;-82
2022/10/02 03:45:13;;;;;;;6.53;1.27;;;13.90;99.90;;;;;;5075186;28;20977;-83
2022/10/02 03:47:39;;;;;;;3.20;0.80;;;13.80;99.90;;;;;;5074463;28;20548;-82
2022/10/02 03:50:05;;;;;;;5.17;1.70;;;13.80;99.90;;;;;;5074180;28;20240;-84
2022/10/02 03:52:31;;;;;;;8.33;1.70;;;13.80;99.90;;;;;;5058178;28;20908;-83
2022/10/02 03:55:12;;;;;;;3.37;0.80;;;13.70;99.90;;;;;;5072742;28;20634;-82
2022/10/02 03:57:39;;;;;;;3.20;1.40;;;13.70;99.90;;;;;;5072974;28;20235;-82
2022/10/02 04:00:18;;;;;;;4.10;0.80;;;13.70;99.90;;;;;;5075065;28;20188;-84
2022/10/02 04:03:16;;;;;;;5.50;1.00;;;13.70;99.90;;;;;;5074413;28;20766;-83
2022/10/02 04:05:49;;;;;;;2.70;1.07;;;13.70;99.90;;;;;;5065617;28;20308;-82
2022/10/02 04:08:26;;;;;;;10.83;0.90;;;13.60;99.90;;;;;;5078087;28;20534;-81
2022/10/02 04:11:09;;;;;;;4.80;1.20;;;13.60;99.90;;;;;;5078665;28;20208;-83
2022/10/02 04:13:39;;;;;;;0.47;0.37;;;13.50;99.90;;;;;;5075114;28;20251;-82
2022/10/02 04:16:11;;;;;;;5.10;1.00;;;13.50;99.90;;;;;;5077073;28;20235;-83
2022/10/02 04:18:49;;;;;;;8.60;0.80;;;13.50;99.90;;;;;;5077929;28;20228;-83
2022/10/02 04:21:29;;;;;;;5.33;0.93;;;13.50;99.90;;;;;;5078427;28;20278;-84
2022/10/02 04:24:08;;;;;;;6.50;1.80;;;13.60;99.90;;;;;;5078346;28;20192;-82
2022/10/02 04:26:38;;;;;;;6.07;2.13;;;13.50;99.90;;;;;;5078420;28;20184;-84
2022/10/02 04:29:24;;;;;;;2.97;1.17;;;13.50;99.90;;;;;;5078237;28;20248;-82
2022/10/02 04:31:55;;;;;;;4.53;1.60;;;13.60;99.90;;;;;;5078077;28;20232;-85
2022/10/02 04:34:20;;;;;;;6.37;0.83;;;13.50;99.90;;;;;;5078654;28;20215;-82
2022/10/02 04:37:12;;;;;;;1.73;0.70;;;13.50;99.90;;;;;;5058130;28;20224;-83
2022/10/02 04:39:48;;;;;;;6.43;1.83;;;13.50;99.90;;;;;;5077102;28;20224;-82
2022/10/02 04:42:23;;;;;;;5.13;0.93;;;13.50;99.90;;;;;;5080283;28;20303;-84
2022/10/02 04:45:25;;;;;;;3.80;1.53;;;13.50;99.90;;;;;;5079232;28;20188;-83
2022/10/02 04:48:17;;;;;;;4.30;1.17;;;13.40;99.90;;;;;;5048009;28;20212;-82
2022/10/02 04:51:07;;;;;;;7.53;1.27;;;13.30;99.90;;;;;;5074479;28;20611;-82
2022/10/02 04:54:05;;;;;;;7.13;1.90;;;13.30;99.90;;;;;;5077551;28;20270;-82
2022/10/02 04:57:08;;;;;;;6.47;1.67;;;13.30;99.90;;;;;;5055769;28;20594;-82
2022/10/02 04:59:58;;;;;;;5.77;0.67;;;13.30;99.90;;;;;;5077011;28;20220;-83
2022/10/02 05:02:47;;;;;;;4.57;1.00;;;13.20;99.90;;;;;;5078831;28;20662;-82
2022/10/02 05:05:18;;;;;;;5.70;1.57;;;13.20;99.90;;;;;;5077886;28;21172;-83
2022/10/02 05:07:53;;;;;;;6.27;1.03;;;13.30;99.90;;;;;;5076181;28;20228;-82
2022/10/02 05:10:55;;;;;;;5.00;1.50;;;13.20;99.90;;;;;;5078888;28;20231;-83
2022/10/02 05:13:39;;;;;;;2.97;1.03;;;13.20;99.90;;;;;;5076558;28;20325;-83
2022/10/02 05:16:30;;;;;;;9.20;1.77;;;13.20;99.90;;;;;;5077134;28;20224;-82
2022/10/02 05:19:20;;;;;;;2.17;0.70;;;13.20;99.90;;;;;;5076186;28;20224;-81
2022/10/02 05:22:06;;;;;;;12.27;1.80;;;13.20;99.90;;;;;;5074637;28;20637;-82
2022/10/02 05:24:53;;;;;;;2.47;1.00;;;13.20;99.90;;;;;;5078464;28;20882;-82
2022/10/02 05:27:55;;;;;;;3.30;1.70;;;13.20;99.90;;;;;;5077004;28;20320;-84
2022/10/02 05:30:21;;;;;;;2.73;0.77;;;13.20;99.90;;;;;;5075658;28;20261;-83
2022/10/02 05:32:55;;;;;;;4.50;1.60;;;13.20;99.90;;;;;;5077850;28;20590;-82
2022/10/02 05:35:40;;;;;;;9.93;1.10;;;13.20;99.90;;;;;;5075656;28;20211;-83
2022/10/02 05:38:24;;;;;;;0.97;0.80;;;13.30;99.90;;;;;;5077012;28;20823;-84
2022/10/02 05:41:04;;;;;;;7.97;1.27;;;13.20;99.90;;;;;;5075230;28;20663;-83
2022/10/02 05:43:50;;;;;;;8.23;1.33;;;13.30;99.90;;;;;;5076297;28;20235;-83
2022/10/02 05:46:24;;;;;;;4.53;0.57;;;13.30;99.90;;;;;;5079151;28;20240;-81
2022/10/02 05:48:59;;;;;;;2.93;1.93;;;13.30;99.90;;;;;;5075305;28;20273;-84
2022/10/02 05:51:58;;;;;;;9.63;1.67;;;13.40;99.90;;;;;;5075130;28;20225;-82
2022/10/02 05:54:44;;;;;;;2.97;1.20;;;13.40;99.90;;;;;;5075665;28;20225;-83
2022/10/02 05:57:42;;;;;;;3.23;1.53;;;13.40;99.90;;;;;;5076820;28;20241;-83
2022/10/02 06:00:44;;;;;;;2.40;2.03;;;13.50;99.90;;;;;;5074387;28;20211;-83
2022/10/02 06:03:23;;;;;;;4.63;2.37;;;13.50;99.90;;;;;;5074631;28;20221;-83
2022/10/02 06:06:19;;;;;;;2.23;1.20;;;13.60;99.90;;;;;;5078226;28;20181;-83
2022/10/02 06:09:21;;;;;;;7.37;1.70;;;13.70;99.90;;;;;;5075252;28;20228;-83
2022/10/02 06:12:05;;;;;;;0.80;0.73;;;13.80;99.90;;;;;;5076478;28;20190;-82
2022/10/02 06:14:45;;;;;;;6.00;0.97;;;13.90;99.90;;;;;;5075286;28;20235;-83
2022/10/02 06:17:24;;;;;;;5.23;1.10;;;13.80;99.90;;;;;;5071965;28;20255;-82
2022/10/02 06:20:01;;;;;;;0.63;0.63;;;13.90;99.90;;;;;;5075123;28;20715;-83
2022/10/02 06:22:54;;;;;;;7.20;0.87;;;14.00;99.90;;;;;;5075179;28;20233;-83
2022/10/02 06:25:55;;;;;;;5.37;0.50;;;14.00;99.90;;;;;;5066333;28;20212;-83
2022/10/02 06:28:34;;;;;;;4.30;0.67;;;14.10;99.90;;;;;;5072574;28;20220;-81
2022/10/02 06:31:12;;;;;;;2.47;0.73;;;14.00;99.90;;;;;;5076254;28;20221;-84
2022/10/02 06:33:38;;;;;;;0.43;0.20;;;13.90;99.90;;;;;;5076518;28;20725;-82
2022/10/02 06:36:20;;;;;;;0.30;0.30;;;13.70;99.90;;;;;;5075771;28;20243;-81
2022/10/02 06:38:52;;;;;;;0.67;0.67;;;13.60;99.90;;;;;;5077810;28;20742;-83
2022/10/02 06:41:55;;;;;;;5.07;0.60;;;13.70;99.90;;;;;;5076725;28;20580;-83
2022/10/02 06:44:26;;;;;;;2.30;0.50;;;13.80;99.90;;;;;;5072689;28;20216;-83
2022/10/02 06:46:57;;;;;;;0.67;0.43;;;14.40;99.90;;;;;;5076322;28;20224;-84
2022/10/02 06:49:56;;;;;;;3.77;0.90;;;15.10;99.90;;;;;;5075156;28;20679;-83
2022/10/02 06:52:51;;;;;;;2.97;1.07;;;14.80;99.90;;;;;;5054070;28;20576;-83
2022/10/02 06:55:48;;;;;;;1.40;0.63;;;14.40;99.90;;;;;;5073944;28;20701;-84
2022/10/02 06:58:26;;;;;;;0.43;0.43;;;14.10;99.90;;;;;;5075008;28;20229;-84
2022/10/02 07:01:09;;;;;;;0.20;0.20;;;13.90;99.90;;;;;;5072256;28;20220;-84
2022/10/02 07:03:59;;;;;;;4.50;0.60;;;13.90;99.90;;;;;;5074209;28;20241;-84
2022/10/02 07:07:08;;;;;;;1.07;0.70;;;14.00;99.90;;;;;;5073172;28;20215;-84
2022/10/02 07:10:15;;;;;;;3.17;1.00;;;14.00;99.90;;;;;;5060723;28;20208;-84
2022/10/02 07:13:12;;;;;;;2.43;1.00;;;14.10;99.90;;;;;;5064377;28;20254;-85
2022/10/02 07:16:08;;;;;;;1.83;0.87;;;14.20;99.90;;;;;;5051387;28;20979;-83
2022/10/02 07:18:53;;;;;;;2.73;1.00;;;14.30;99.90;;;;;;5070628;28;20216;-83
2022/10/02 07:21:48;;;;;;;2.87;0.90;;;14.40;99.90;;;;;;5070801;28;20242;-84
2022/10/02 07:24:44;;;;;;;0.97;0.70;;;14.50;99.90;;;;;;5070767;28;20231;-83
2022/10/02 07:28:04;;;;;;;10.73;1.87;;;14.60;99.90;;;;;;5074491;28;20239;-83
2022/10/02 07:30:43;;;;;;;5.87;0.77;;;14.50;99.90;;;;;;5050181;28;20225;-82
2022/10/02 07:33:18;;;;;;;2.20;1.33;;;14.60;99.90;;;;;;5074496;28;20187;-79
2022/10/02 07:36:19;;;;;;;1.07;0.63;;;14.50;99.90;;;;;;5072997;28;20212;-82
2022/10/02 07:39:20;;;;;;;1.70;0.97;;;14.30;99.90;;;;;;5059743;28;20220;-82
2022/10/02 07:42:21;;;;;;;3.63;0.90;;;14.30;99.90;;;;;;5055456;28;20188;-82
2022/10/02 07:45:03;;;;;;;4.53;1.20;;;14.20;99.90;;;;;;5069624;28;20584;-82
2022/10/02 07:48:05;;;;;;;1.20;0.73;;;14.20;99.90;;;;;;5073781;28;20239;-84
2022/10/02 07:50:41;;;;;;;5.33;1.47;;;14.10;99.90;;;;;;5073323;28;20220;-82
2022/10/02 07:53:39;;;;;;;1.63;1.10;;;14.00;99.90;;;;;;5076468;28;20184;-83
2022/10/02 07:56:08;;;;;;;5.90;1.10;;;14.00;99.90;;;;;;5074231;28;20700;-83
2022/10/02 07:58:50;;;;;;;4.47;1.23;;;14.00;99.90;;;;;;5075355;28;20251;-82
2022/10/02 08:01:24;;;;;;;5.87;1.67;;;14.10;99.90;;;;;;5072819;28;20323;-83
2022/10/02 08:04:02;;;;;;;6.10;1.53;;;14.10;99.90;;;;;;5090377;28;20255;-81
2022/10/02 08:06:29;;;;;;;4.17;1.40;;;14.10;99.90;;;;;;5071097;28;20256;-84
2022/10/02 08:09:04;;;;;;;1.63;0.90;;;14.10;99.90;;;;;;5073291;28;20212;-83
2022/10/02 08:11:43;;;;;;;2.30;1.30;;;14.10;99.90;;;;;;5072347;28;20180;-83
2022/10/02 08:14:24;;;;;;;1.53;1.10;;;14.10;99.90;;;;;;5072928;28;20271;-84
2022/10/02 08:16:59;;;;;;;4.93;0.73;;;14.20;99.90;;;;;;5069947;28;20581;-83
2022/10/02 08:19:43;;;;;;;3.27;1.63;;;14.70;99.90;;;;;;5068307;28;20217;-84
2022/10/02 08:22:24;;;;;;;2.67;1.47;;;14.90;99.90;;;;;;5065737;28;20217;-84
2022/10/02 08:24:57;;;;;;;5.70;1.97;;;15.50;99.90;;;;;;5069442;28;20216;-85
2022/10/02 08:27:46;;;;;;;13.57;3.10;;;15.90;99.90;;;;;;5070907;28;20214;-84
2022/10/02 08:30:13;;;;;;;5.93;1.40;;;16.20;99.90;;;;;;5068830;28;20272;-84
2022/10/02 08:32:39;;;;;;;6.97;1.10;;;16.10;99.90;;;;;;5073650;28;20189;-84
2022/10/02 08:35:11;;;;;;;1.80;1.37;;;16.10;99.90;;;;;;5055628;28;20707;-84
2022/10/02 08:37:49;;;;;;;4.30;0.80;;;15.80;99.90;;;;;;5071684;28;20636;-84
2022/10/02 08:40:39;;;;;;;3.33;1.07;;;15.60;99.90;;;;;;5070143;28;20252;-85
2022/10/02 08:43:43;;;;;;;3.80;1.37;;;15.50;99.90;;;;;;5066158;28;20226;-85
2022/10/02 08:46:53;;;;;;;6.73;1.97;;;15.40;99.90;;;;;;5071723;28;20216;-84
2022/10/02 08:49:40;;;;;;;5.80;1.30;;;15.60;99.90;;;;;;5076745;28;20216;-84
2022/10/02 08:52:30;;;;;;;5.33;1.63;;;15.90;99.90;;;;;;5072306;28;20248;-85
2022/10/02 08:55:08;;;;;;;4.50;1.73;;;16.10;99.90;;;;;;5076419;28;20701;-85
2022/10/02 08:57:34;;;;;;;2.47;0.80;;;16.20;99.90;;;;;;5073615;28;20239;-86
2022/10/02 09:00:16;;;;;;;3.17;1.07;;;16.10;99.90;;;;;;5074675;28;20221;-86
2022/10/02 09:03:20;;;;;;;5.70;1.50;;;16.20;99.90;;;;;;5075684;28;20187;-86
2022/10/02 09:06:24;;;;;;;9.10;1.77;;;16.30;99.90;;;;;;5072770;28;20599;-85
2022/10/02 09:09:28;;;;;;;9.23;1.40;;;16.20;99.90;;;;;;5049541;28;20190;-85
2022/10/02 09:12:12;;;;;;;1.63;1.03;;;16.20;99.90;;;;;;5075982;28;20804;-86
2022/10/02 09:14:44;;;;;;;5.40;1.90;;;16.30;99.90;;;;;;5076219;28;20242;-86
2022/10/02 09:17:29;;;;;;;8.60;1.07;;;16.30;99.90;;;;;;5078904;28;20220;-85
2022/10/02 09:20:10;;;;;;;3.00;1.00;;;16.20;99.90;;;;;;5075513;28;20217;-86
2022/10/02 09:22:54;;;;;;;1.50;0.60;;;16.40;99.90;;;;;;5072856;28;20252;-83
2022/10/02 09:25:53;;;;;;;5.33;1.53;;;16.30;99.90;;;;;;5072699;28;20224;-83
2022/10/02 09:28:39;;;;;;;7.33;1.57;;;16.40;99.90;;;;;;5075259;28;20585;-85
2022/10/02 09:31:43;;;;;;;6.63;1.27;;;16.40;99.90;;;;;;5072025;28;20221;-86
2022/10/02 09:34:46;;;;;;;2.23;0.60;;;16.30;99.90;;;;;;5075950;28;20274;-84
2022/10/02 09:37:27;;;;;;;4.03;0.60;;;16.10;99.90;;;;;;5075336;28;20228;-87
2022/10/02 09:40:52;;;;;;;4.07;1.23;;;16.10;99.90;;;;;;5076092;28;20225;-86
2022/10/02 09:43:52;;;;;;;1.10;0.60;;;16.40;99.90;;;;;;4981987;28;20264;-84
2022/10/02 09:46:26;;;;;;;6.00;1.17;;;16.40;99.90;;;;;;5090948;28;20278;-83
2022/10/02 09:49:14;;;;;;;2.73;0.87;;;16.60;99.90;;;;;;5075391;28;20217;-83
2022/10/02 09:52:05;;;;;;;5.07;0.57;;;16.80;99.90;;;;;;5072155;28;20319;-84
2022/10/02 09:54:46;;;;;;;2.63;0.83;;;17.00;99.90;;;;;;5072410;28;20740;-85
2022/10/02 09:57:36;;;;;;;2.43;0.63;;;17.40;99.90;;;;;;5079294;28;20734;-86
2022/10/02 10:00:37;;;;;;;6.77;1.27;;;17.70;99.90;;;;;;5072519;28;20503;-85
2022/10/02 10:03:30;;;;;;;3.33;0.80;;;18.00;99.90;;;;;;5076357;28;20520;-86
2022/10/02 10:06:08;;;;;;;2.90;0.73;;;18.50;99.90;;;;;;5072838;28;20247;-86
2022/10/02 10:09:12;;;;;;;6.90;0.73;;;18.40;99.90;;;;;;5070892;28;20219;-84
2022/10/02 10:11:55;;;;;;;5.40;1.23;;;18.70;99.90;;;;;;4982681;28;20269;-85
2022/10/02 10:15:03;;;;;;;2.73;1.03;;;18.60;99.90;;;;;;5062681;28;20233;-86
2022/10/02 10:18:08;;;;;;;8.13;1.60;;;18.80;99.90;;;;;;5069244;28;20228;-85
2022/10/02 10:21:11;;;;;;;5.03;2.20;;;18.80;99.90;;;;;;5068318;28;20227;-86
2022/10/02 10:24:12;;;;;;;6.67;1.40;;;18.80;99.90;;;;;;5071908;28;20180;-85
2022/10/02 10:26:56;;;;;;;5.13;1.20;;;19.20;99.90;;;;;;5077095;28;20189;-84
2022/10/02 10:30:02;;;;;;;3.53;0.73;;;18.80;99.90;;;;;;5076575;28;20677;-84
2022/10/02 10:32:49;;;;;;;7.03;1.10;;;18.90;99.90;;;;;;5070616;28;21135;-85
2022/10/02 10:35:35;;;;;;;3.90;0.97;;;18.80;99.90;;;;;;5074551;28;20276;-86
2022/10/02 10:41:04;;;;;;;3.90;1.13;;;19.10;99.90;;;;;;5075410;28;20686;-86
2022/10/02 10:44:01;;;;;;;3.27;1.03;;;19.20;99.90;;;;;;5070805;28;20224;-85
2022/10/02 10:46:43;;;;;;;2.47;1.03;;;18.90;99.90;;;;;;5074705;28;20224;-85
2022/10/02 10:49:16;;;;;;;4.10;0.90;;;19.00;99.90;;;;;;5071542;28;20217;-85
2022/10/02 10:52:20;;;;;;;2.10;1.07;;;19.40;99.90;;;;;;5073423;28;20585;-86
2022/10/02 10:54:54;;;;;;;11.43;1.53;;;19.60;99.90;;;;;;5065304;28;20723;-86
2022/10/02 10:57:50;;;;;;;4.40;0.80;;;19.90;99.90;;;;;;5068694;28;20316;-86
2022/10/02 11:00:26;;;;;;;6.27;1.60;;;19.80;99.90;;;;;;5068990;28;20223;-85
2022/10/02 11:03:07;;;;;;;2.43;1.37;;;20.20;99.90;;;;;;5071083;28;20181;-84
2022/10/02 11:05:52;;;;;;;3.87;1.40;;;20.30;99.90;;;;;;5072612;28;20189;-84
2022/10/02 11:08:30;;;;;;;1.10;1.00;;;20.20;99.90;;;;;;5071348;28;20264;-85
2022/10/02 11:11:20;;;;;;;3.47;1.20;;;20.20;99.90;;;;;;5072053;28;20775;-85
2022/10/02 11:13:49;;;;;;;0.97;0.67;;;20.40;99.90;;;;;;5068716;28;20252;-83
2022/10/02 11:16:42;;;;;;;3.63;0.90;;;20.00;99.90;;;;;;5073634;28;20225;-85
2022/10/02 11:19:27;;;;;;;3.90;0.83;;;19.70;99.90;;;;;;5062956;28;20234;-85
2022/10/02 11:22:15;;;;;;;2.30;0.80;;;19.10;99.90;;;;;;5069394;28;20225;-85
2022/10/02 11:24:56;;;;;;;3.87;0.87;;;19.00;99.90;;;;;;5072390;28;20580;-85
2022/10/02 11:28:01;;;;;;;2.73;1.00;;;19.20;99.90;;;;;;5073958;28;20317;-85
2022/10/02 11:30:53;;;;;;;3.30;0.63;;;19.00;99.90;;;;;;5069090;28;20270;-83
2022/10/02 11:33:32;;;;;;;3.23;0.70;;;19.20;99.90;;;;;;5070417;28;20227;-83
2022/10/02 11:36:09;;;;;;;5.53;1.20;;;19.20;99.90;;;;;;5075799;28;20251;-84
2022/10/02 11:38:51;;;;;;;1.63;0.70;;;19.20;99.90;;;;;;5074683;28;20215;-85
2022/10/02 11:41:42;;;;;;;3.43;1.00;;;19.40;99.90;;;;;;5069785;28;20276;-85
2022/10/02 11:44:15;;;;;;;7.00;1.17;;;19.20;99.90;;;;;;5074067;28;20215;-85
2022/10/02 11:46:51;;;;;;;7.77;1.23;;;19.00;99.90;;;;;;5069113;28;20225;-85
2022/10/02 11:50:00;;;;;;;3.87;1.23;;;19.00;99.90;;;;;;5065924;28;20486;-84
2022/10/02 11:53:04;;;;;;;3.87;0.77;;;18.70;99.90;;;;;;5062753;28;20216;-85
2022/10/02 11:56:02;;;;;;;2.57;1.07;;;18.60;99.90;;;;;;5066833;28;20801;-85
2022/10/02 11:58:51;;;;;;;6.07;1.20;;;17.60;99.90;;;;;;5071106;28;20260;-85
2022/10/02 12:02:04;;;;;;;4.20;0.87;;;17.30;99.90;;;;;;5065159;28;20650;-84
2022/10/02 12:04:47;;;;;;;9.87;1.30;;;17.70;99.90;;;;;;5054076;28;20235;-83
2022/10/02 12:07:31;;;;;;;6.33;1.70;;;18.00;99.90;;;;;;5064290;28;20224;-83
2022/10/02 12:10:12;;;;;;;1.63;0.80;;;17.70;99.90;;;;;;5063146;28;20716;-82
2022/10/02 12:12:50;;;;;;;2.27;0.87;;;17.80;99.90;;;;;;5064669;28;20287;-82
2022/10/02 12:15:55;;;;;;;5.13;1.40;;;17.90;99.90;;;;;;5058485;28;20434;-82
2022/10/02 12:18:58;;;;;;;2.70;1.40;;;17.60;99.90;;;;;;5065616;28;20235;-84
2022/10/02 12:27:41;;;;;;;4.83;1.13;;;17.50;99.90;;;;;;5068264;28;20217;-84
2022/10/02 12:30:13;;;;;;;5.67;1.20;;;17.50;99.90;;;;;;5070180;28;20229;-84
2022/10/02 12:32:57;;;;;;;1.37;0.60;;;17.40;99.90;;;;;;5070982;28;20264;-84
2022/10/02 12:35:52;;;;;;;4.43;1.10;;;17.40;99.90;;;;;;5073461;28;20222;-83
2022/10/02 12:38:27;;;;;;;6.23;1.57;;;17.40;99.90;;;;;;5070720;28;20217;-82
2022/10/02 12:41:07;;;;;;;1.00;0.97;;;17.40;99.90;;;;;;5068753;28;20426;-83
2022/10/02 12:43:54;;;;;;;3.10;0.80;;;17.40;99.90;;;;;;5073963;28;20212;-83
2022/10/02 12:46:58;;;;;;;3.03;0.63;;;17.40;99.90;;;;;;5073930;28;20224;-84
2022/10/02 12:49:51;;;;;;;5.23;0.87;;;17.30;99.90;;;;;;5065821;28;20252;-84
2022/10/02 12:52:51;;;;;;;6.90;1.73;;;17.30;99.90;;;;;;5066328;28;20217;-83
2022/10/02 12:55:51;;;;;;;5.73;1.90;;;17.50;99.90;;;;;;5069669;28;20213;-82
2022/10/02 12:58:38;;;;;;;0.57;0.57;;;17.00;99.90;;;;;;5072569;28;20233;-82
2022/10/02 13:01:55;;;;;;;2.27;1.33;;;16.80;99.90;;;;;;5069563;28;20220;-84
2022/10/02 13:04:43;;;;;;;1.53;0.80;;;17.10;99.90;;;;;;5020055;28;20602;-85
2022/10/02 13:07:12;;;;;;;4.27;1.37;;;17.40;99.90;;;;;;5067603;28;20293;-81
2022/10/02 13:09:46;;;;;;;1.00;0.90;;;17.50;99.90;;;;;;5063541;28;20216;-81
2022/10/02 13:12:20;;;;;;;3.20;0.90;;;17.50;99.90;;;;;;5068547;28;20642;-81
2022/10/02 13:15:25;;;;;;;0.77;0.47;;;17.40;99.90;;;;;;5067734;28;20197;-84
2022/10/02 13:17:57;;;;;;;4.77;1.63;;;17.30;99.90;;;;;;5068600;28;20193;-81
2022/10/02 13:20:37;;;;;;;2.40;0.87;;;17.30;99.90;;;;;;5067169;28;20208;-83
2022/10/02 13:23:21;;;;;;;2.00;0.47;;;17.50;99.90;;;;;;5067796;28;20221;-82
2022/10/02 13:26:03;;;;;;;2.43;1.10;;;17.30;99.90;;;;;;5067706;28;20217;-84
2022/10/02 13:29:00;;;;;;;6.03;1.37;;;17.30;99.90;;;;;;5069946;28;20232;-81
2022/10/02 13:31:35;;;;;;;2.63;0.53;;;17.40;99.90;;;;;;5068695;28;21110;-81
2022/10/02 13:34:30;;;;;;;7.43;1.57;;;17.50;99.90;;;;;;5067992;28;20216;-84
2022/10/02 13:37:18;;;;;;;4.73;0.90;;;17.60;99.90;;;;;;5068372;28;20221;-82
2022/10/02 13:40:09;;;;;;;1.67;0.73;;;17.50;99.90;;;;;;5067583;28;20226;-82
2022/10/02 13:42:53;;;;;;;2.30;0.83;;;17.40;99.90;;;;;;5073579;28;20208;-83
2022/10/02 13:45:22;;;;;;;6.87;1.57;;;17.40;99.90;;;;;;5070866;28;20224;-83
2022/10/02 13:48:19;;;;;;;1.77;0.57;;;17.30;99.90;;;;;;5065775;28;20250;-84
2022/10/02 13:51:02;;;;;;;7.63;2.23;;;17.30;99.90;;;;;;5069841;28;20205;-84
2022/10/02 13:53:53;;;;;;;1.67;0.97;;;17.30;99.90;;;;;;5069566;28;20197;-85
2022/10/02 13:56:25;;;;;;;3.07;1.07;;;17.30;99.90;;;;;;5073417;28;20224;-82
2022/10/02 13:59:24;;;;;;;3.50;0.93;;;17.40;99.90;;;;;;5066731;28;20225;-83
2022/10/02 14:02:27;;;;;;;5.23;0.67;;;17.30;99.90;;;;;;5071051;28;20744;-83
2022/10/02 14:04:57;;;;;;;7.13;1.07;;;17.40;99.90;;;;;;5067798;28;20312;-83
2022/10/02 14:07:53;;;;;;;6.70;1.23;;;17.30;99.90;;;;;;5066664;28;20293;-82
2022/10/02 14:10:58;;;;;;;4.63;1.20;;;17.40;99.90;;;;;;5069482;28;20211;-83
2022/10/02 14:13:53;;;;;;;1.50;0.70;;;17.50;99.90;;;;;;5066830;28;20228;-84
2022/10/02 14:17:00;;;;;;;8.60;1.80;;;17.40;99.90;;;;;;5062119;28;20935;-83
2022/10/02 14:19:41;;;;;;;7.83;1.20;;;17.30;99.90;;;;;;5043749;28;20319;-83
2022/10/02 14:22:32;;;;;;;7.83;1.57;;;17.40;99.90;;;;;;5066971;28;20250;-82